sensor_id;sensor_type;location;lat;lon;timestamp;P1;durP1;ratioP1;P2;durP2;ratioP2
21729;SDS011;11027;51.030;13.812;2022-08-14T00:01:08;12.55;;;8.52;;
21729;SDS011;11027;51.030;13.812;2022-08-14T00:03:33;11.27;;;8.07;;
21729;SDS011;11027;51.030;13.812;2022-08-14T00:06:00;9.52;;;8.27;;
21729;SDS011;11027;51.030;13.812;2022-08-14T00:08:27;8.35;;;7.55;;
21729;SDS011;11027;51.030;13.812;2022-08-14T00:10:52;10.45;;;8.15;;
21729;SDS011;11027;51.030;13.812;2022-08-14T00:13:18;8.27;;;7.53;;
21729;SDS011;11027;51.030;13.812;2022-08-14T00:15:47;9.43;;;8.52;;
21729;SDS011;11027;51.030;13.812;2022-08-14T00:18:16;8.10;;;7.30;;
21729;SDS011;11027;51.030;13.812;2022-08-14T00:20:44;8.03;;;7.33;;
21729;SDS011;11027;51.030;13.812;2022-08-14T00:23:10;8.63;;;7.43;;
21729;SDS011;11027;51.030;13.812;2022-08-14T00:25:37;8.57;;;7.70;;
21729;SDS011;11027;51.030;13.812;2022-08-14T00:28:03;8.32;;;7.60;;
21729;SDS011;11027;51.030;13.812;2022-08-14T00:30:31;9.45;;;8.50;;
21729;SDS011;11027;51.030;13.812;2022-08-14T00:32:57;10.07;;;7.63;;
21729;SDS011;11027;51.030;13.812;2022-08-14T00:35:22;8.70;;;7.85;;
21729;SDS011;11027;51.030;13.812;2022-08-14T00:37:47;13.10;;;7.40;;
21729;SDS011;11027;51.030;13.812;2022-08-14T00:40:14;8.05;;;7.25;;
21729;SDS011;11027;51.030;13.812;2022-08-14T00:42:41;8.23;;;7.53;;
21729;SDS011;11027;51.030;13.812;2022-08-14T00:45:08;8.60;;;7.68;;
21729;SDS011;11027;51.030;13.812;2022-08-14T00:47:35;10.27;;;7.97;;
21729;SDS011;11027;51.030;13.812;2022-08-14T00:50:02;8.50;;;7.70;;
21729;SDS011;11027;51.030;13.812;2022-08-14T00:52:31;9.32;;;8.23;;
21729;SDS011;11027;51.030;13.812;2022-08-14T00:54:57;10.35;;;8.68;;
21729;SDS011;11027;51.030;13.812;2022-08-14T00:57:24;8.85;;;7.95;;
21729;SDS011;11027;51.030;13.812;2022-08-14T00:59:51;8.50;;;7.70;;
21729;SDS011;11027;51.030;13.812;2022-08-14T01:02:17;10.75;;;8.40;;
21729;SDS011;11027;51.030;13.812;2022-08-14T01:04:49;10.77;;;8.55;;
21729;SDS011;11027;51.030;13.812;2022-08-14T01:07:15;10.57;;;8.27;;
21729;SDS011;11027;51.030;13.812;2022-08-14T01:09:44;10.05;;;8.48;;
21729;SDS011;11027;51.030;13.812;2022-08-14T01:12:12;9.52;;;7.75;;
21729;SDS011;11027;51.030;13.812;2022-08-14T01:14:39;9.23;;;8.20;;
21729;SDS011;11027;51.030;13.812;2022-08-14T01:17:04;9.32;;;8.52;;
21729;SDS011;11027;51.030;13.812;2022-08-14T01:19:29;9.15;;;8.15;;
21729;SDS011;11027;51.030;13.812;2022-08-14T01:22:13;9.07;;;8.18;;
21729;SDS011;11027;51.030;13.812;2022-08-14T01:24:40;12.20;;;8.40;;
21729;SDS011;11027;51.030;13.812;2022-08-14T01:27:05;11.20;;;8.18;;
21729;SDS011;11027;51.030;13.812;2022-08-14T01:29:31;9.82;;;8.93;;
21729;SDS011;11027;51.030;13.812;2022-08-14T01:32:02;8.55;;;7.68;;
21729;SDS011;11027;51.030;13.812;2022-08-14T01:34:28;10.02;;;8.93;;
21729;SDS011;11027;51.030;13.812;2022-08-14T01:36:56;8.82;;;8.02;;
21729;SDS011;11027;51.030;13.812;2022-08-14T01:39:22;8.93;;;8.07;;
21729;SDS011;11027;51.030;13.812;2022-08-14T01:41:49;10.10;;;8.82;;
21729;SDS011;11027;51.030;13.812;2022-08-14T01:44:21;8.85;;;7.97;;
21729;SDS011;11027;51.030;13.812;2022-08-14T01:46:50;8.82;;;7.97;;
21729;SDS011;11027;51.030;13.812;2022-08-14T01:49:18;10.32;;;8.40;;
21729;SDS011;11027;51.030;13.812;2022-08-14T01:51:46;11.70;;;8.48;;
21729;SDS011;11027;51.030;13.812;2022-08-14T01:54:13;8.85;;;7.95;;
21729;SDS011;11027;51.030;13.812;2022-08-14T01:56:45;8.80;;;8.00;;
21729;SDS011;11027;51.030;13.812;2022-08-14T02:01:41;9.63;;;8.73;;
21729;SDS011;11027;51.030;13.812;2022-08-14T02:04:07;9.00;;;8.10;;
21729;SDS011;11027;51.030;13.812;2022-08-14T02:06:33;9.18;;;8.27;;
21729;SDS011;11027;51.030;13.812;2022-08-14T02:08:59;9.68;;;8.70;;
21729;SDS011;11027;51.030;13.812;2022-08-14T02:11:27;9.07;;;8.32;;
21729;SDS011;11027;51.030;13.812;2022-08-14T02:16:21;10.07;;;8.40;;
21729;SDS011;11027;51.030;13.812;2022-08-14T02:18:49;9.57;;;8.68;;
21729;SDS011;11027;51.030;13.812;2022-08-14T02:21:15;9.40;;;8.50;;
21729;SDS011;11027;51.030;13.812;2022-08-14T02:23:42;8.88;;;8.05;;
21729;SDS011;11027;51.030;13.812;2022-08-14T02:26:19;9.32;;;8.43;;
21729;SDS011;11027;51.030;13.812;2022-08-14T02:28:50;8.98;;;8.07;;
21729;SDS011;11027;51.030;13.812;2022-08-14T02:31:24;9.63;;;8.73;;
21729;SDS011;11027;51.030;13.812;2022-08-14T02:33:54;9.48;;;8.57;;
21729;SDS011;11027;51.030;13.812;2022-08-14T02:36:20;9.55;;;8.65;;
21729;SDS011;11027;51.030;13.812;2022-08-14T02:38:46;11.02;;;8.52;;
21729;SDS011;11027;51.030;13.812;2022-08-14T02:41:12;9.52;;;8.63;;
21729;SDS011;11027;51.030;13.812;2022-08-14T02:43:38;8.85;;;8.05;;
21729;SDS011;11027;51.030;13.812;2022-08-14T02:46:07;9.50;;;8.70;;
21729;SDS011;11027;51.030;13.812;2022-08-14T02:48:35;9.73;;;8.00;;
21729;SDS011;11027;51.030;13.812;2022-08-14T02:51:06;9.53;;;8.67;;
21729;SDS011;11027;51.030;13.812;2022-08-14T02:53:34;9.73;;;8.88;;
21729;SDS011;11027;51.030;13.812;2022-08-14T02:56:02;9.48;;;8.52;;
21729;SDS011;11027;51.030;13.812;2022-08-14T02:58:29;9.73;;;8.70;;
21729;SDS011;11027;51.030;13.812;2022-08-14T03:00:54;9.80;;;8.43;;
21729;SDS011;11027;51.030;13.812;2022-08-14T03:03:20;10.02;;;9.02;;
21729;SDS011;11027;51.030;13.812;2022-08-14T03:05:48;9.77;;;8.88;;
21729;SDS011;11027;51.030;13.812;2022-08-14T03:08:15;9.57;;;8.63;;
21729;SDS011;11027;51.030;13.812;2022-08-14T03:10:41;10.10;;;9.18;;
21729;SDS011;11027;51.030;13.812;2022-08-14T03:13:07;9.57;;;8.68;;
21729;SDS011;11027;51.030;13.812;2022-08-14T03:15:34;9.55;;;8.70;;
21729;SDS011;11027;51.030;13.812;2022-08-14T03:18:11;10.07;;;8.32;;
21729;SDS011;11027;51.030;13.812;2022-08-14T03:20:37;9.52;;;8.43;;
21729;SDS011;11027;51.030;13.812;2022-08-14T03:23:02;10.10;;;9.20;;
21729;SDS011;11027;51.030;13.812;2022-08-14T03:25:28;10.13;;;9.10;;
21729;SDS011;11027;51.030;13.812;2022-08-14T03:27:58;11.93;;;9.23;;
21729;SDS011;11027;51.030;13.812;2022-08-14T03:30:27;9.48;;;8.57;;
21729;SDS011;11027;51.030;13.812;2022-08-14T03:32:54;10.32;;;9.27;;
21729;SDS011;11027;51.030;13.812;2022-08-14T03:35:21;9.05;;;8.25;;
21729;SDS011;11027;51.030;13.812;2022-08-14T03:37:46;9.77;;;8.75;;
21729;SDS011;11027;51.030;13.812;2022-08-14T03:40:12;9.38;;;8.40;;
21729;SDS011;11027;51.030;13.812;2022-08-14T03:42:37;10.10;;;9.00;;
21729;SDS011;11027;51.030;13.812;2022-08-14T03:45:03;10.10;;;9.20;;
21729;SDS011;11027;51.030;13.812;2022-08-14T03:47:30;9.75;;;8.82;;
21729;SDS011;11027;51.030;13.812;2022-08-14T03:49:56;9.82;;;8.88;;
21729;SDS011;11027;51.030;13.812;2022-08-14T03:52:22;9.70;;;8.80;;
21729;SDS011;11027;51.030;13.812;2022-08-14T03:54:48;10.65;;;9.55;;
21729;SDS011;11027;51.030;13.812;2022-08-14T03:57:13;10.18;;;9.18;;
21729;SDS011;11027;51.030;13.812;2022-08-14T03:59:38;11.02;;;8.82;;
21729;SDS011;11027;51.030;13.812;2022-08-14T04:02:03;9.70;;;8.80;;
21729;SDS011;11027;51.030;13.812;2022-08-14T04:04:29;10.43;;;9.48;;
21729;SDS011;11027;51.030;13.812;2022-08-14T04:06:55;10.65;;;9.55;;
21729;SDS011;11027;51.030;13.812;2022-08-14T04:09:20;10.25;;;9.32;;
21729;SDS011;11027;51.030;13.812;2022-08-14T04:11:45;10.40;;;9.35;;
21729;SDS011;11027;51.030;13.812;2022-08-14T04:14:11;10.40;;;9.40;;
21729;SDS011;11027;51.030;13.812;2022-08-14T04:16:37;9.50;;;8.43;;
21729;SDS011;11027;51.030;13.812;2022-08-14T04:19:05;9.70;;;8.70;;
21729;SDS011;11027;51.030;13.812;2022-08-14T04:21:32;9.85;;;8.68;;
21729;SDS011;11027;51.030;13.812;2022-08-14T04:23:58;9.98;;;9.07;;
21729;SDS011;11027;51.030;13.812;2022-08-14T04:26:25;10.65;;;8.95;;
21729;SDS011;11027;51.030;13.812;2022-08-14T04:28:52;9.60;;;8.70;;
21729;SDS011;11027;51.030;13.812;2022-08-14T04:31:18;9.57;;;8.70;;
21729;SDS011;11027;51.030;13.812;2022-08-14T04:33:45;9.80;;;8.90;;
21729;SDS011;11027;51.030;13.812;2022-08-14T04:36:12;9.73;;;8.82;;
21729;SDS011;11027;51.030;13.812;2022-08-14T04:38:37;10.38;;;8.93;;
21729;SDS011;11027;51.030;13.812;2022-08-14T04:41:21;10.32;;;9.43;;
21729;SDS011;11027;51.030;13.812;2022-08-14T04:44:05;9.65;;;8.80;;
21729;SDS011;11027;51.030;13.812;2022-08-14T04:46:32;10.43;;;9.45;;
21729;SDS011;11027;51.030;13.812;2022-08-14T04:48:58;11.93;;;9.07;;
21729;SDS011;11027;51.030;13.812;2022-08-14T04:51:23;10.57;;;9.23;;
21729;SDS011;11027;51.030;13.812;2022-08-14T04:53:50;10.57;;;9.57;;
21729;SDS011;11027;51.030;13.812;2022-08-14T04:56:17;10.25;;;9.25;;
21729;SDS011;11027;51.030;13.812;2022-08-14T04:58:46;10.45;;;9.45;;
21729;SDS011;11027;51.030;13.812;2022-08-14T05:01:12;10.73;;;9.73;;
21729;SDS011;11027;51.030;13.812;2022-08-14T05:03:38;10.82;;;9.73;;
21729;SDS011;11027;51.030;13.812;2022-08-14T05:06:06;11.02;;;10.02;;
21729;SDS011;11027;51.030;13.812;2022-08-14T05:08:32;11.75;;;10.20;;
21729;SDS011;11027;51.030;13.812;2022-08-14T05:11:00;11.15;;;10.10;;
21729;SDS011;11027;51.030;13.812;2022-08-14T05:13:27;10.77;;;9.77;;
21729;SDS011;11027;51.030;13.812;2022-08-14T05:15:54;11.10;;;10.00;;
21729;SDS011;11027;51.030;13.812;2022-08-14T05:18:21;10.70;;;9.75;;
21729;SDS011;11027;51.030;13.812;2022-08-14T05:20:49;11.20;;;9.93;;
21729;SDS011;11027;51.030;13.812;2022-08-14T05:23:18;12.60;;;10.30;;
21729;SDS011;11027;51.030;13.812;2022-08-14T05:25:46;11.45;;;10.35;;
21729;SDS011;11027;51.030;13.812;2022-08-14T05:28:15;10.85;;;9.40;;
21729;SDS011;11027;51.030;13.812;2022-08-14T05:30:43;11.55;;;10.45;;
21729;SDS011;11027;51.030;13.812;2022-08-14T05:33:10;11.18;;;9.93;;
21729;SDS011;11027;51.030;13.812;2022-08-14T05:35:36;11.48;;;10.43;;
21729;SDS011;11027;51.030;13.812;2022-08-14T05:38:06;11.07;;;10.07;;
21729;SDS011;11027;51.030;13.812;2022-08-14T05:40:37;15.70;;;10.77;;
21729;SDS011;11027;51.030;13.812;2022-08-14T05:43:04;10.88;;;9.88;;
21729;SDS011;11027;51.030;13.812;2022-08-14T05:45:29;11.25;;;10.25;;
21729;SDS011;11027;51.030;13.812;2022-08-14T05:47:54;12.35;;;11.15;;
21729;SDS011;11027;51.030;13.812;2022-08-14T05:50:20;11.27;;;10.27;;
21729;SDS011;11027;51.030;13.812;2022-08-14T05:52:46;12.25;;;11.05;;
21729;SDS011;11027;51.030;13.812;2022-08-14T05:55:12;11.48;;;10.38;;
21729;SDS011;11027;51.030;13.812;2022-08-14T06:00:22;20.33;;;10.77;;
21729;SDS011;11027;51.030;13.812;2022-08-14T06:02:48;13.07;;;10.73;;
21729;SDS011;11027;51.030;13.812;2022-08-14T06:05:13;12.55;;;11.35;;
21729;SDS011;11027;51.030;13.812;2022-08-14T06:07:39;12.18;;;11.00;;
21729;SDS011;11027;51.030;13.812;2022-08-14T06:10:05;11.32;;;10.27;;
21729;SDS011;11027;51.030;13.812;2022-08-14T06:12:32;12.00;;;10.80;;
21729;SDS011;11027;51.030;13.812;2022-08-14T06:14:57;11.73;;;10.63;;
21729;SDS011;11027;51.030;13.812;2022-08-14T06:17:23;11.95;;;10.85;;
21729;SDS011;11027;51.030;13.812;2022-08-14T06:19:48;12.32;;;10.57;;
21729;SDS011;11027;51.030;13.812;2022-08-14T06:22:14;11.57;;;10.45;;
21729;SDS011;11027;51.030;13.812;2022-08-14T06:24:39;12.38;;;10.73;;
21729;SDS011;11027;51.030;13.812;2022-08-14T06:27:04;11.30;;;10.10;;
21729;SDS011;11027;51.030;13.812;2022-08-14T06:29:30;12.10;;;11.00;;
21729;SDS011;11027;51.030;13.812;2022-08-14T06:31:55;13.18;;;10.90;;
21729;SDS011;11027;51.030;13.812;2022-08-14T06:34:21;12.23;;;11.02;;
21729;SDS011;11027;51.030;13.812;2022-08-14T06:36:46;11.45;;;10.35;;
21729;SDS011;11027;51.030;13.812;2022-08-14T06:39:12;11.20;;;10.20;;
21729;SDS011;11027;51.030;13.812;2022-08-14T06:41:38;13.73;;;11.00;;
21729;SDS011;11027;51.030;13.812;2022-08-14T06:44:07;11.57;;;10.57;;
21729;SDS011;11027;51.030;13.812;2022-08-14T06:46:33;13.88;;;10.50;;
21729;SDS011;11027;51.030;13.812;2022-08-14T06:48:58;12.45;;;11.18;;
21729;SDS011;11027;51.030;13.812;2022-08-14T06:51:23;11.85;;;10.63;;
21729;SDS011;11027;51.030;13.812;2022-08-14T06:53:49;12.10;;;10.90;;
21729;SDS011;11027;51.030;13.812;2022-08-14T06:59:02;10.63;;;9.52;;
21729;SDS011;11027;51.030;13.812;2022-08-14T07:01:28;10.55;;;9.55;;
21729;SDS011;11027;51.030;13.812;2022-08-14T07:04:12;11.13;;;10.13;;
21729;SDS011;11027;51.030;13.812;2022-08-14T07:06:56;11.48;;;10.27;;
21729;SDS011;11027;51.030;13.812;2022-08-14T07:09:21;11.73;;;10.25;;
21729;SDS011;11027;51.030;13.812;2022-08-14T07:11:46;11.07;;;9.90;;
21729;SDS011;11027;51.030;13.812;2022-08-14T07:14:11;14.55;;;12.45;;
21729;SDS011;11027;51.030;13.812;2022-08-14T07:16:37;13.82;;;12.23;;
21729;SDS011;11027;51.030;13.812;2022-08-14T07:19:02;13.20;;;11.95;;
21729;SDS011;11027;51.030;13.812;2022-08-14T07:21:28;13.15;;;11.85;;
21729;SDS011;11027;51.030;13.812;2022-08-14T07:23:53;11.95;;;10.75;;
21729;SDS011;11027;51.030;13.812;2022-08-14T07:26:18;13.30;;;10.43;;
21729;SDS011;11027;51.030;13.812;2022-08-14T07:28:44;11.93;;;10.73;;
21729;SDS011;11027;51.030;13.812;2022-08-14T07:31:10;11.73;;;10.57;;
21729;SDS011;11027;51.030;13.812;2022-08-14T07:33:44;11.55;;;10.23;;
21729;SDS011;11027;51.030;13.812;2022-08-14T07:36:11;10.85;;;9.75;;
21729;SDS011;11027;51.030;13.812;2022-08-14T07:38:37;13.85;;;10.73;;
21729;SDS011;11027;51.030;13.812;2022-08-14T07:41:04;12.68;;;11.38;;
21729;SDS011;11027;51.030;13.812;2022-08-14T07:43:31;11.60;;;10.43;;
21729;SDS011;11027;51.030;13.812;2022-08-14T07:45:56;11.68;;;10.50;;
21729;SDS011;11027;51.030;13.812;2022-08-14T07:48:22;11.43;;;10.32;;
21729;SDS011;11027;51.030;13.812;2022-08-14T07:50:47;11.82;;;10.57;;
21729;SDS011;11027;51.030;13.812;2022-08-14T07:53:14;11.23;;;10.13;;
21729;SDS011;11027;51.030;13.812;2022-08-14T07:55:41;11.38;;;10.20;;
21729;SDS011;11027;51.030;13.812;2022-08-14T07:58:06;11.60;;;10.50;;
21729;SDS011;11027;51.030;13.812;2022-08-14T08:00:32;14.30;;;10.65;;
21729;SDS011;11027;51.030;13.812;2022-08-14T08:02:57;11.85;;;10.55;;
21729;SDS011;11027;51.030;13.812;2022-08-14T08:05:23;11.77;;;10.57;;
21729;SDS011;11027;51.030;13.812;2022-08-14T08:07:50;11.10;;;9.57;;
21729;SDS011;11027;51.030;13.812;2022-08-14T08:10:18;12.38;;;10.75;;
21729;SDS011;11027;51.030;13.812;2022-08-14T08:15:31;14.48;;;12.77;;
21729;SDS011;11027;51.030;13.812;2022-08-14T08:17:59;12.55;;;10.82;;
21729;SDS011;11027;51.030;13.812;2022-08-14T08:20:29;12.82;;;10.30;;
21729;SDS011;11027;51.030;13.812;2022-08-14T08:22:56;10.73;;;9.55;;
21729;SDS011;11027;51.030;13.812;2022-08-14T08:25:26;11.35;;;10.15;;
21729;SDS011;11027;51.030;13.812;2022-08-14T08:27:54;11.10;;;9.55;;
21729;SDS011;11027;51.030;13.812;2022-08-14T08:30:20;10.35;;;9.30;;
21729;SDS011;11027;51.030;13.812;2022-08-14T08:32:45;11.63;;;10.38;;
21729;SDS011;11027;51.030;13.812;2022-08-14T08:35:17;12.40;;;10.80;;
21729;SDS011;11027;51.030;13.812;2022-08-14T08:37:47;14.00;;;12.15;;
21729;SDS011;11027;51.030;13.812;2022-08-14T08:40:23;15.95;;;14.18;;
21729;SDS011;11027;51.030;13.812;2022-08-14T08:42:51;12.38;;;10.07;;
21729;SDS011;11027;51.030;13.812;2022-08-14T08:45:17;10.45;;;9.40;;
21729;SDS011;11027;51.030;13.812;2022-08-14T08:47:43;14.77;;;12.05;;
21729;SDS011;11027;51.030;13.812;2022-08-14T08:50:32;12.18;;;11.00;;
21729;SDS011;11027;51.030;13.812;2022-08-14T08:53:00;10.23;;;9.02;;
21729;SDS011;11027;51.030;13.812;2022-08-14T08:55:32;17.05;;;9.73;;
21729;SDS011;11027;51.030;13.812;2022-08-14T08:58:00;10.05;;;8.77;;
21729;SDS011;11027;51.030;13.812;2022-08-14T09:00:28;9.48;;;8.63;;
21729;SDS011;11027;51.030;13.812;2022-08-14T09:02:58;11.15;;;9.13;;
21729;SDS011;11027;51.030;13.812;2022-08-14T09:05:27;9.55;;;8.65;;
21729;SDS011;11027;51.030;13.812;2022-08-14T09:07:53;10.00;;;8.27;;
21729;SDS011;11027;51.030;13.812;2022-08-14T09:10:19;10.35;;;8.43;;
21729;SDS011;11027;51.030;13.812;2022-08-14T09:12:44;11.20;;;10.02;;
21729;SDS011;11027;51.030;13.812;2022-08-14T09:15:10;10.63;;;9.52;;
21729;SDS011;11027;51.030;13.812;2022-08-14T09:17:35;9.02;;;8.20;;
21729;SDS011;11027;51.030;13.812;2022-08-14T09:20:01;8.48;;;7.57;;
21729;SDS011;11027;51.030;13.812;2022-08-14T09:22:27;11.48;;;7.80;;
21729;SDS011;11027;51.030;13.812;2022-08-14T09:24:54;9.02;;;7.63;;
21729;SDS011;11027;51.030;13.812;2022-08-14T09:27:20;10.93;;;7.50;;
21729;SDS011;11027;51.030;13.812;2022-08-14T09:29:46;8.70;;;7.28;;
21729;SDS011;11027;51.030;13.812;2022-08-14T09:32:11;8.70;;;7.88;;
21729;SDS011;11027;51.030;13.812;2022-08-14T09:34:49;6.75;;;6.15;;
21729;SDS011;11027;51.030;13.812;2022-08-14T09:40:14;10.98;;;7.22;;
21729;SDS011;11027;51.030;13.812;2022-08-14T09:45:46;7.40;;;6.70;;
21729;SDS011;11027;51.030;13.812;2022-08-14T09:48:13;7.20;;;6.50;;
21729;SDS011;11027;51.030;13.812;2022-08-14T09:50:48;7.90;;;6.13;;
21729;SDS011;11027;51.030;13.812;2022-08-14T09:53:16;6.43;;;5.82;;
21729;SDS011;11027;51.030;13.812;2022-08-14T09:55:58;6.03;;;5.43;;
21729;SDS011;11027;51.030;13.812;2022-08-14T09:58:34;6.90;;;4.95;;
21729;SDS011;11027;51.030;13.812;2022-08-14T10:01:08;5.05;;;4.63;;
21729;SDS011;11027;51.030;13.812;2022-08-14T10:03:36;6.88;;;4.35;;
21729;SDS011;11027;51.030;13.812;2022-08-14T10:06:22;6.28;;;5.03;;
21729;SDS011;11027;51.030;13.812;2022-08-14T10:08:53;6.53;;;5.88;;
21729;SDS011;11027;51.030;13.812;2022-08-14T10:11:26;6.65;;;5.00;;
21729;SDS011;11027;51.030;13.812;2022-08-14T10:13:58;5.97;;;3.95;;
21729;SDS011;11027;51.030;13.812;2022-08-14T10:16:27;5.80;;;4.15;;
21729;SDS011;11027;51.030;13.812;2022-08-14T10:19:00;7.78;;;4.22;;
21729;SDS011;11027;51.030;13.812;2022-08-14T10:21:31;8.02;;;4.03;;
21729;SDS011;11027;51.030;13.812;2022-08-14T10:23:56;7.15;;;4.00;;
21729;SDS011;11027;51.030;13.812;2022-08-14T10:26:22;4.57;;;3.70;;
21729;SDS011;11027;51.030;13.812;2022-08-14T10:28:49;9.23;;;3.97;;
21729;SDS011;11027;51.030;13.812;2022-08-14T10:31:24;6.63;;;3.92;;
21729;SDS011;11027;51.030;13.812;2022-08-14T10:36:28;10.40;;;3.70;;
21729;SDS011;11027;51.030;13.812;2022-08-14T10:38:57;7.05;;;3.75;;
21729;SDS011;11027;51.030;13.812;2022-08-14T10:41:32;5.35;;;3.85;;
21729;SDS011;11027;51.030;13.812;2022-08-14T10:44:09;8.20;;;4.05;;
21729;SDS011;11027;51.030;13.812;2022-08-14T10:46:52;3.58;;;3.28;;
21729;SDS011;11027;51.030;13.812;2022-08-14T10:49:23;7.32;;;3.55;;
21729;SDS011;11027;51.030;13.812;2022-08-14T10:52:09;7.45;;;3.45;;
21729;SDS011;11027;51.030;13.812;2022-08-14T10:54:38;5.57;;;3.65;;
21729;SDS011;11027;51.030;13.812;2022-08-14T10:57:13;6.03;;;3.70;;
21729;SDS011;11027;51.030;13.812;2022-08-14T10:59:44;6.70;;;2.92;;
21729;SDS011;11027;51.030;13.812;2022-08-14T11:02:21;7.55;;;3.40;;
21729;SDS011;11027;51.030;13.812;2022-08-14T11:04:59;6.75;;;3.60;;
21729;SDS011;11027;51.030;13.812;2022-08-14T11:07:26;10.90;;;3.33;;
21729;SDS011;11027;51.030;13.812;2022-08-14T11:09:59;4.28;;;3.60;;
21729;SDS011;11027;51.030;13.812;2022-08-14T11:12:41;5.35;;;3.50;;
21729;SDS011;11027;51.030;13.812;2022-08-14T11:15:11;7.22;;;3.28;;
21729;SDS011;11027;51.030;13.812;2022-08-14T11:17:38;5.10;;;2.97;;
21729;SDS011;11027;51.030;13.812;2022-08-14T11:20:04;4.55;;;3.10;;
21729;SDS011;11027;51.030;13.812;2022-08-14T11:22:32;3.70;;;2.70;;
21729;SDS011;11027;51.030;13.812;2022-08-14T11:24:59;8.80;;;3.28;;
21729;SDS011;11027;51.030;13.812;2022-08-14T11:27:26;3.25;;;2.95;;
21729;SDS011;11027;51.030;13.812;2022-08-14T11:29:55;3.95;;;3.05;;
21729;SDS011;11027;51.030;13.812;2022-08-14T11:32:24;6.82;;;3.35;;
21729;SDS011;11027;51.030;13.812;2022-08-14T11:34:49;3.88;;;2.85;;
21729;SDS011;11027;51.030;13.812;2022-08-14T11:37:16;4.82;;;2.60;;
21729;SDS011;11027;51.030;13.812;2022-08-14T11:39:41;6.15;;;2.70;;
21729;SDS011;11027;51.030;13.812;2022-08-14T11:42:07;4.20;;;3.00;;
21729;SDS011;11027;51.030;13.812;2022-08-14T11:44:44;6.15;;;3.03;;
21729;SDS011;11027;51.030;13.812;2022-08-14T11:47:10;3.88;;;3.03;;
21729;SDS011;11027;51.030;13.812;2022-08-14T11:49:43;6.00;;;4.45;;
21729;SDS011;11027;51.030;13.812;2022-08-14T11:52:08;5.63;;;3.05;;
21729;SDS011;11027;51.030;13.812;2022-08-14T11:54:34;6.30;;;3.22;;
21729;SDS011;11027;51.030;13.812;2022-08-14T11:57:00;4.82;;;2.97;;
21729;SDS011;11027;51.030;13.812;2022-08-14T11:59:25;10.63;;;3.10;;
21729;SDS011;11027;51.030;13.812;2022-08-14T12:01:53;5.97;;;3.40;;
21729;SDS011;11027;51.030;13.812;2022-08-14T12:04:18;10.95;;;3.40;;
21729;SDS011;11027;51.030;13.812;2022-08-14T12:06:46;5.93;;;3.17;;
21729;SDS011;11027;51.030;13.812;2022-08-14T12:09:26;9.90;;;2.90;;
21729;SDS011;11027;51.030;13.812;2022-08-14T12:11:52;3.10;;;2.80;;
21729;SDS011;11027;51.030;13.812;2022-08-14T12:14:17;4.97;;;2.83;;
21729;SDS011;11027;51.030;13.812;2022-08-14T12:16:43;3.92;;;2.75;;
21729;SDS011;11027;51.030;13.812;2022-08-14T12:19:09;5.47;;;3.30;;
21729;SDS011;11027;51.030;13.812;2022-08-14T12:21:34;6.65;;;3.90;;
21729;SDS011;11027;51.030;13.812;2022-08-14T12:24:03;10.73;;;3.38;;
21729;SDS011;11027;51.030;13.812;2022-08-14T12:26:33;6.68;;;3.97;;
21729;SDS011;11027;51.030;13.812;2022-08-14T12:29:18;5.15;;;3.38;;
21729;SDS011;11027;51.030;13.812;2022-08-14T12:31:44;11.40;;;6.65;;
21729;SDS011;11027;51.030;13.812;2022-08-14T12:34:10;7.10;;;3.50;;
21729;SDS011;11027;51.030;13.812;2022-08-14T12:36:37;7.40;;;3.95;;
21729;SDS011;11027;51.030;13.812;2022-08-14T12:39:03;10.65;;;3.83;;
21729;SDS011;11027;51.030;13.812;2022-08-14T12:41:47;4.45;;;4.05;;
21729;SDS011;11027;51.030;13.812;2022-08-14T12:44:30;6.82;;;3.70;;
21729;SDS011;11027;51.030;13.812;2022-08-14T12:47:02;6.70;;;3.70;;
21729;SDS011;11027;51.030;13.812;2022-08-14T12:49:30;6.80;;;3.88;;
21729;SDS011;11027;51.030;13.812;2022-08-14T12:51:56;5.03;;;3.70;;
21729;SDS011;11027;51.030;13.812;2022-08-14T12:54:23;4.68;;;3.67;;
21729;SDS011;11027;51.030;13.812;2022-08-14T12:56:49;3.42;;;3.13;;
21729;SDS011;11027;51.030;13.812;2022-08-14T12:59:14;5.13;;;3.33;;
21729;SDS011;11027;51.030;13.812;2022-08-14T13:01:40;4.00;;;3.67;;
21729;SDS011;11027;51.030;13.812;2022-08-14T13:04:14;4.75;;;3.35;;
21729;SDS011;11027;51.030;13.812;2022-08-14T13:06:41;4.30;;;3.85;;
21729;SDS011;11027;51.030;13.812;2022-08-14T13:09:12;4.38;;;3.78;;
21729;SDS011;11027;51.030;13.812;2022-08-14T13:14:15;6.55;;;3.40;;
21729;SDS011;11027;51.030;13.812;2022-08-14T13:16:43;3.63;;;3.28;;
21729;SDS011;11027;51.030;13.812;2022-08-14T13:19:10;5.10;;;4.60;;
21729;SDS011;11027;51.030;13.812;2022-08-14T13:21:40;14.32;;;10.70;;
21729;SDS011;11027;51.030;13.812;2022-08-14T13:24:06;9.02;;;4.38;;
21729;SDS011;11027;51.030;13.812;2022-08-14T13:26:36;6.60;;;3.37;;
21729;SDS011;11027;51.030;13.812;2022-08-14T13:29:07;8.73;;;3.28;;
21729;SDS011;11027;51.030;13.812;2022-08-14T13:31:33;8.93;;;3.15;;
21729;SDS011;11027;51.030;13.812;2022-08-14T13:34:00;5.10;;;3.08;;
21729;SDS011;11027;51.030;13.812;2022-08-14T13:36:27;5.47;;;3.40;;
21729;SDS011;11027;51.030;13.812;2022-08-14T13:38:52;7.90;;;3.58;;
21729;SDS011;11027;51.030;13.812;2022-08-14T13:41:18;5.07;;;3.35;;
21729;SDS011;11027;51.030;13.812;2022-08-14T13:43:48;7.43;;;3.30;;
21729;SDS011;11027;51.030;13.812;2022-08-14T13:46:14;4.63;;;2.97;;
21729;SDS011;11027;51.030;13.812;2022-08-14T13:48:41;8.45;;;3.33;;
21729;SDS011;11027;51.030;13.812;2022-08-14T13:51:06;5.10;;;2.80;;
21729;SDS011;11027;51.030;13.812;2022-08-14T13:53:34;7.22;;;3.47;;
21729;SDS011;11027;51.030;13.812;2022-08-14T13:56:09;5.97;;;3.10;;
21729;SDS011;11027;51.030;13.812;2022-08-14T13:58:37;6.63;;;2.95;;
21729;SDS011;11027;51.030;13.812;2022-08-14T14:01:02;6.75;;;2.90;;
21729;SDS011;11027;51.030;13.812;2022-08-14T14:03:29;7.10;;;2.90;;
21729;SDS011;11027;51.030;13.812;2022-08-14T14:05:59;3.17;;;2.75;;
21729;SDS011;11027;51.030;13.812;2022-08-14T14:08:26;2.88;;;2.67;;
21729;SDS011;11027;51.030;13.812;2022-08-14T14:10:52;4.30;;;2.88;;
21729;SDS011;11027;51.030;13.812;2022-08-14T14:13:19;5.28;;;2.90;;
21729;SDS011;11027;51.030;13.812;2022-08-14T14:15:46;3.47;;;2.88;;
21729;SDS011;11027;51.030;13.812;2022-08-14T14:18:12;4.85;;;3.25;;
21729;SDS011;11027;51.030;13.812;2022-08-14T14:20:41;9.10;;;4.03;;
21729;SDS011;11027;51.030;13.812;2022-08-14T14:23:08;15.10;;;4.22;;
21729;SDS011;11027;51.030;13.812;2022-08-14T14:25:44;10.85;;;4.65;;
21729;SDS011;11027;51.030;13.812;2022-08-14T14:28:11;9.60;;;4.25;;
21729;SDS011;11027;51.030;13.812;2022-08-14T14:30:39;11.02;;;4.80;;
21729;SDS011;11027;51.030;13.812;2022-08-14T14:33:10;9.48;;;4.80;;
21729;SDS011;11027;51.030;13.812;2022-08-14T14:35:37;7.95;;;4.60;;
21729;SDS011;11027;51.030;13.812;2022-08-14T14:38:11;10.00;;;5.20;;
21729;SDS011;11027;51.030;13.812;2022-08-14T14:40:38;9.20;;;4.97;;
21729;SDS011;11027;51.030;13.812;2022-08-14T14:43:04;9.80;;;5.40;;
21729;SDS011;11027;51.030;13.812;2022-08-14T14:45:34;7.68;;;5.25;;
21729;SDS011;11027;51.030;13.812;2022-08-14T14:48:01;8.88;;;5.15;;
21729;SDS011;11027;51.030;13.812;2022-08-14T14:50:31;5.05;;;4.32;;
21729;SDS011;11027;51.030;13.812;2022-08-14T14:52:56;6.50;;;4.40;;
21729;SDS011;11027;51.030;13.812;2022-08-14T14:55:22;5.10;;;4.43;;